sensor_id;sensor_type;location;lat;lon;timestamp;temperature;humidity
8953;DHT22;4511;50.890;8.054;2023-08-06T00:00:31;15.90;99.90
8953;DHT22;4511;50.890;8.054;2023-08-06T00:02:57;16.00;99.90
8953;DHT22;4511;50.890;8.054;2023-08-06T00:05:24;15.90;99.90
8953;DHT22;4511;50.890;8.054;2023-08-06T00:07:51;15.80;99.90
8953;DHT22;4511;50.890;8.054;2023-08-06T00:10:19;15.90;99.90
8953;DHT22;4511;50.890;8.054;2023-08-06T00:12:46;15.90;99.90
8953;DHT22;4511;50.890;8.054;2023-08-06T00:15:14;15.80;99.90
8953;DHT22;4511;50.890;8.054;2023-08-06T00:17:41;15.90;99.90
8953;DHT22;4511;50.890;8.054;2023-08-06T00:20:08;15.80;99.90
8953;DHT22;4511;50.890;8.054;2023-08-06T00:22:36;15.90;99.90
8953;DHT22;4511;50.890;8.054;2023-08-06T00:25:04;15.80;99.90
8953;DHT22;4511;50.890;8.054;2023-08-06T00:27:32;15.80;99.90
8953;DHT22;4511;50.890;8.054;2023-08-06T00:29:59;15.80;99.90
8953;DHT22;4511;50.890;8.054;2023-08-06T00:32:26;15.80;99.90
8953;DHT22;4511;50.890;8.054;2023-08-06T00:34:53;15.70;99.90
8953;DHT22;4511;50.890;8.054;2023-08-06T00:37:19;15.70;99.90
8953;DHT22;4511;50.890;8.054;2023-08-06T00:39:46;15.80;99.90
8953;DHT22;4511;50.890;8.054;2023-08-06T00:42:13;15.70;99.90
8953;DHT22;4511;50.890;8.054;2023-08-06T00:44:43;15.70;99.90
8953;DHT22;4511;50.890;8.054;2023-08-06T00:47:09;15.70;99.90
8953;DHT22;4511;50.890;8.054;2023-08-06T00:49:37;15.70;99.90
8953;DHT22;4511;50.890;8.054;2023-08-06T00:52:04;15.70;99.90
8953;DHT22;4511;50.890;8.054;2023-08-06T00:54:32;15.80;99.90
8953;DHT22;4511;50.890;8.054;2023-08-06T00:56:59;15.70;99.90
8953;DHT22;4511;50.890;8.054;2023-08-06T00:59:27;15.60;99.90
8953;DHT22;4511;50.890;8.054;2023-08-06T01:01:56;15.60;99.90
8953;DHT22;4511;50.890;8.054;2023-08-06T01:04:23;15.70;99.90
8953;DHT22;4511;50.890;8.054;2023-08-06T01:06:59;15.70;99.90
8953;DHT22;4511;50.890;8.054;2023-08-06T01:09:35;15.80;99.90
8953;DHT22;4511;50.890;8.054;2023-08-06T01:12:08;15.80;99.90
8953;DHT22;4511;50.890;8.054;2023-08-06T01:14:45;15.60;99.90
8953;DHT22;4511;50.890;8.054;2023-08-06T01:17:14;15.70;99.90
8953;DHT22;4511;50.890;8.054;2023-08-06T01:19:41;15.70;99.90
8953;DHT22;4511;50.890;8.054;2023-08-06T01:22:09;15.80;99.90
8953;DHT22;4511;50.890;8.054;2023-08-06T01:24:36;15.80;99.90
8953;DHT22;4511;50.890;8.054;2023-08-06T01:27:08;15.70;99.90
8953;DHT22;4511;50.890;8.054;2023-08-06T01:29:38;15.80;99.90
8953;DHT22;4511;50.890;8.054;2023-08-06T01:32:08;15.70;99.90
8953;DHT22;4511;50.890;8.054;2023-08-06T01:34:39;15.70;99.90
8953;DHT22;4511;50.890;8.054;2023-08-06T01:37:07;15.70;99.90
8953;DHT22;4511;50.890;8.054;2023-08-06T01:39:35;15.70;99.90
8953;DHT22;4511;50.890;8.054;2023-08-06T01:42:02;15.80;99.90
8953;DHT22;4511;50.890;8.054;2023-08-06T01:44:29;15.70;99.90
8953;DHT22;4511;50.890;8.054;2023-08-06T01:46:56;15.70;99.90
8953;DHT22;4511;50.890;8.054;2023-08-06T01:49:23;15.70;99.90
8953;DHT22;4511;50.890;8.054;2023-08-06T01:51:50;15.70;99.90
8953;DHT22;4511;50.890;8.054;2023-08-06T01:54:17;15.70;99.90
8953;DHT22;4511;50.890;8.054;2023-08-06T01:56:45;15.70;99.90
8953;DHT22;4511;50.890;8.054;2023-08-06T01:59:11;15.80;99.90
8953;DHT22;4511;50.890;8.054;2023-08-06T02:01:38;15.70;99.90
8953;DHT22;4511;50.890;8.054;2023-08-06T02:04:05;15.70;99.90
8953;DHT22;4511;50.890;8.054;2023-08-06T02:06:32;15.70;99.90
8953;DHT22;4511;50.890;8.054;2023-08-06T02:08:58;15.70;99.90
8953;DHT22;4511;50.890;8.054;2023-08-06T02:11:25;15.70;99.90
8953;DHT22;4511;50.890;8.054;2023-08-06T02:13:53;15.70;99.90
8953;DHT22;4511;50.890;8.054;2023-08-06T02:16:20;15.70;99.90
8953;DHT22;4511;50.890;8.054;2023-08-06T02:18:47;15.80;99.90
8953;DHT22;4511;50.890;8.054;2023-08-06T02:21:14;15.80;99.90
8953;DHT22;4511;50.890;8.054;2023-08-06T02:23:40;15.80;99.90
8953;DHT22;4511;50.890;8.054;2023-08-06T02:26:07;15.90;99.90
8953;DHT22;4511;50.890;8.054;2023-08-06T02:28:34;15.90;99.90
8953;DHT22;4511;50.890;8.054;2023-08-06T02:31:02;15.90;99.90
8953;DHT22;4511;50.890;8.054;2023-08-06T02:33:29;15.80;99.90
8953;DHT22;4511;50.890;8.054;2023-08-06T02:35:59;15.80;99.90
8953;DHT22;4511;50.890;8.054;2023-08-06T02:38:29;15.80;99.90
8953;DHT22;4511;50.890;8.054;2023-08-06T02:40:55;15.80;99.90
8953;DHT22;4511;50.890;8.054;2023-08-06T02:43:22;15.90;99.90
8953;DHT22;4511;50.890;8.054;2023-08-06T02:45:49;15.90;99.90
8953;DHT22;4511;50.890;8.054;2023-08-06T02:48:17;15.90;99.90
8953;DHT22;4511;50.890;8.054;2023-08-06T02:50:44;15.90;99.90
8953;DHT22;4511;50.890;8.054;2023-08-06T02:53:11;15.90;99.90
8953;DHT22;4511;50.890;8.054;2023-08-06T02:55:38;15.90;99.90
8953;DHT22;4511;50.890;8.054;2023-08-06T02:58:04;15.90;99.90
8953;DHT22;4511;50.890;8.054;2023-08-06T03:00:31;15.90;99.90
8953;DHT22;4511;50.890;8.054;2023-08-06T03:02:58;15.90;99.90
8953;DHT22;4511;50.890;8.054;2023-08-06T03:05:26;15.90;99.90
8953;DHT22;4511;50.890;8.054;2023-08-06T03:07:52;15.90;99.90
8953;DHT22;4511;50.890;8.054;2023-08-06T03:10:19;15.90;99.90
8953;DHT22;4511;50.890;8.054;2023-08-06T03:12:46;15.90;99.90
8953;DHT22;4511;50.890;8.054;2023-08-06T03:15:13;15.90;99.90
8953;DHT22;4511;50.890;8.054;2023-08-06T03:17:40;15.80;99.90
8953;DHT22;4511;50.890;8.054;2023-08-06T03:20:07;15.80;99.90
8953;DHT22;4511;50.890;8.054;2023-08-06T03:22:35;15.80;99.90
8953;DHT22;4511;50.890;8.054;2023-08-06T03:25:02;15.80;99.90
8953;DHT22;4511;50.890;8.054;2023-08-06T03:27:29;15.80;99.90
8953;DHT22;4511;50.890;8.054;2023-08-06T03:29:56;15.80;99.90
8953;DHT22;4511;50.890;8.054;2023-08-06T03:32:23;15.80;99.90
8953;DHT22;4511;50.890;8.054;2023-08-06T03:34:49;15.80;99.90
8953;DHT22;4511;50.890;8.054;2023-08-06T03:37:16;15.70;99.90
8953;DHT22;4511;50.890;8.054;2023-08-06T03:39:44;15.70;99.90
8953;DHT22;4511;50.890;8.054;2023-08-06T03:42:11;15.80;99.90
8953;DHT22;4511;50.890;8.054;2023-08-06T03:44:38;15.80;99.90
8953;DHT22;4511;50.890;8.054;2023-08-06T03:47:05;15.80;99.90
8953;DHT22;4511;50.890;8.054;2023-08-06T03:49:32;15.80;99.90
8953;DHT22;4511;50.890;8.054;2023-08-06T03:51:58;15.90;99.90
8953;DHT22;4511;50.890;8.054;2023-08-06T03:54:25;15.90;99.90
8953;DHT22;4511;50.890;8.054;2023-08-06T03:56:53;15.90;99.90
8953;DHT22;4511;50.890;8.054;2023-08-06T03:59:20;15.90;99.90
8953;DHT22;4511;50.890;8.054;2023-08-06T04:01:47;15.90;99.90
8953;DHT22;4511;50.890;8.054;2023-08-06T04:04:14;15.90;99.90
8953;DHT22;4511;50.890;8.054;2023-08-06T04:06:40;15.90;99.90
8953;DHT22;4511;50.890;8.054;2023-08-06T04:09:07;15.90;99.90
8953;DHT22;4511;50.890;8.054;2023-08-06T04:11:34;15.90;99.90
8953;DHT22;4511;50.890;8.054;2023-08-06T04:14:02;15.90;99.90
8953;DHT22;4511;50.890;8.054;2023-08-06T04:16:29;15.90;99.90
8953;DHT22;4511;50.890;8.054;2023-08-06T04:18:56;15.80;99.90
8953;DHT22;4511;50.890;8.054;2023-08-06T04:21:23;15.80;99.90
8953;DHT22;4511;50.890;8.054;2023-08-06T04:23:50;15.80;99.90
8953;DHT22;4511;50.890;8.054;2023-08-06T04:26:17;15.90;99.90
8953;DHT22;4511;50.890;8.054;2023-08-06T04:28:44;15.90;99.90
8953;DHT22;4511;50.890;8.054;2023-08-06T04:31:12;15.80;99.90
8953;DHT22;4511;50.890;8.054;2023-08-06T04:33:39;15.90;99.90
8953;DHT22;4511;50.890;8.054;2023-08-06T04:36:06;15.90;99.90
8953;DHT22;4511;50.890;8.054;2023-08-06T04:38:32;15.90;99.90
8953;DHT22;4511;50.890;8.054;2023-08-06T04:40:59;15.90;99.90
8953;DHT22;4511;50.890;8.054;2023-08-06T04:43:26;15.90;99.90
8953;DHT22;4511;50.890;8.054;2023-08-06T04:45:55;15.90;99.90
8953;DHT22;4511;50.890;8.054;2023-08-06T04:48:23;15.90;99.90
8953;DHT22;4511;50.890;8.054;2023-08-06T04:50:50;15.90;99.90
8953;DHT22;4511;50.890;8.054;2023-08-06T04:53:17;15.90;99.90
8953;DHT22;4511;50.890;8.054;2023-08-06T04:55:44;16.00;99.90
8953;DHT22;4511;50.890;8.054;2023-08-06T04:58:11;16.00;99.90
8953;DHT22;4511;50.890;8.054;2023-08-06T05:00:38;16.00;99.90
8953;DHT22;4511;50.890;8.054;2023-08-06T05:03:05;16.00;99.90
8953;DHT22;4511;50.890;8.054;2023-08-06T05:05:33;16.00;99.90
8953;DHT22;4511;50.890;8.054;2023-08-06T05:08:00;16.00;99.90
8953;DHT22;4511;50.890;8.054;2023-08-06T05:10:28;16.00;99.90
8953;DHT22;4511;50.890;8.054;2023-08-06T05:12:54;16.10;99.90
8953;DHT22;4511;50.890;8.054;2023-08-06T05:15:21;16.10;99.90
8953;DHT22;4511;50.890;8.054;2023-08-06T05:17:51;16.20;99.90
8953;DHT22;4511;50.890;8.054;2023-08-06T05:20:18;16.10;99.90
8953;DHT22;4511;50.890;8.054;2023-08-06T05:22:46;16.20;99.90
8953;DHT22;4511;50.890;8.054;2023-08-06T05:25:14;16.20;99.90
8953;DHT22;4511;50.890;8.054;2023-08-06T05:27:41;16.20;99.90
8953;DHT22;4511;50.890;8.054;2023-08-06T05:30:09;16.10;99.90
8953;DHT22;4511;50.890;8.054;2023-08-06T05:32:36;16.20;99.90
8953;DHT22;4511;50.890;8.054;2023-08-06T05:35:03;16.30;99.90
8953;DHT22;4511;50.890;8.054;2023-08-06T05:37:30;16.20;99.90
8953;DHT22;4511;50.890;8.054;2023-08-06T05:39:58;16.20;99.90
8953;DHT22;4511;50.890;8.054;2023-08-06T05:42:25;16.20;99.90
8953;DHT22;4511;50.890;8.054;2023-08-06T05:44:51;16.20;99.90
8953;DHT22;4511;50.890;8.054;2023-08-06T05:47:18;16.20;99.90
8953;DHT22;4511;50.890;8.054;2023-08-06T05:49:46;16.20;99.90
8953;DHT22;4511;50.890;8.054;2023-08-06T05:52:12;16.10;99.90
8953;DHT22;4511;50.890;8.054;2023-08-06T05:54:39;16.20;99.90
8953;DHT22;4511;50.890;8.054;2023-08-06T05:57:08;16.20;99.90
8953;DHT22;4511;50.890;8.054;2023-08-06T05:59:35;16.20;99.90
8953;DHT22;4511;50.890;8.054;2023-08-06T06:02:01;16.20;99.90
8953;DHT22;4511;50.890;8.054;2023-08-06T06:04:28;16.20;99.90
8953;DHT22;4511;50.890;8.054;2023-08-06T06:06:55;16.20;99.90
8953;DHT22;4511;50.890;8.054;2023-08-06T06:09:22;16.30;99.90
8953;DHT22;4511;50.890;8.054;2023-08-06T06:11:49;16.30;99.90
8953;DHT22;4511;50.890;8.054;2023-08-06T06:14:17;16.30;99.90
8953;DHT22;4511;50.890;8.054;2023-08-06T06:16:44;16.30;99.90
8953;DHT22;4511;50.890;8.054;2023-08-06T06:19:10;16.30;99.90
8953;DHT22;4511;50.890;8.054;2023-08-06T06:21:37;16.40;99.90
8953;DHT22;4511;50.890;8.054;2023-08-06T06:24:04;16.40;99.90
8953;DHT22;4511;50.890;8.054;2023-08-06T06:26:31;16.50;99.90
8953;DHT22;4511;50.890;8.054;2023-08-06T06:28:58;16.60;99.90
8953;DHT22;4511;50.890;8.054;2023-08-06T06:31:26;16.70;99.90
8953;DHT22;4511;50.890;8.054;2023-08-06T06:33:53;16.60;99.90
8953;DHT22;4511;50.890;8.054;2023-08-06T06:36:21;16.70;99.90
8953;DHT22;4511;50.890;8.054;2023-08-06T06:38:49;16.70;99.90
8953;DHT22;4511;50.890;8.054;2023-08-06T06:41:16;16.80;99.90
8953;DHT22;4511;50.890;8.054;2023-08-06T06:43:42;16.90;99.90
8953;DHT22;4511;50.890;8.054;2023-08-06T06:46:09;17.00;99.90
8953;DHT22;4511;50.890;8.054;2023-08-06T06:48:37;17.10;99.90
8953;DHT22;4511;50.890;8.054;2023-08-06T06:51:04;17.00;99.90
8953;DHT22;4511;50.890;8.054;2023-08-06T06:53:31;17.10;99.90
8953;DHT22;4511;50.890;8.054;2023-08-06T06:56:02;17.10;99.90
8953;DHT22;4511;50.890;8.054;2023-08-06T06:58:29;17.10;99.90
8953;DHT22;4511;50.890;8.054;2023-08-06T07:00:56;17.10;99.90
8953;DHT22;4511;50.890;8.054;2023-08-06T07:03:23;17.10;99.90
8953;DHT22;4511;50.890;8.054;2023-08-06T07:05:51;17.10;99.90
8953;DHT22;4511;50.890;8.054;2023-08-06T07:08:18;17.10;99.90
8953;DHT22;4511;50.890;8.054;2023-08-06T07:10:45;17.10;99.90
8953;DHT22;4511;50.890;8.054;2023-08-06T07:13:12;17.10;99.90
8953;DHT22;4511;50.890;8.054;2023-08-06T07:15:39;17.20;99.90
8953;DHT22;4511;50.890;8.054;2023-08-06T07:18:05;17.20;99.90
8953;DHT22;4511;50.890;8.054;2023-08-06T07:20:32;17.20;99.90
8953;DHT22;4511;50.890;8.054;2023-08-06T07:23:01;17.20;99.90
8953;DHT22;4511;50.890;8.054;2023-08-06T07:25:28;17.20;99.90
8953;DHT22;4511;50.890;8.054;2023-08-06T07:27:54;17.10;99.90
8953;DHT22;4511;50.890;8.054;2023-08-06T07:30:22;17.10;99.90
8953;DHT22;4511;50.890;8.054;2023-08-06T07:32:49;17.10;99.90
8953;DHT22;4511;50.890;8.054;2023-08-06T07:35:16;17.10;99.90
8953;DHT22;4511;50.890;8.054;2023-08-06T07:37:43;17.20;99.90
8953;DHT22;4511;50.890;8.054;2023-08-06T07:40:11;17.40;99.90
8953;DHT22;4511;50.890;8.054;2023-08-06T07:42:39;17.50;99.90
8953;DHT22;4511;50.890;8.054;2023-08-06T07:45:07;17.50;99.90
8953;DHT22;4511;50.890;8.054;2023-08-06T07:47:34;17.00;99.90
8953;DHT22;4511;50.890;8.054;2023-08-06T07:50:01;16.90;99.90
8953;DHT22;4511;50.890;8.054;2023-08-06T07:52:28;17.10;99.90
8953;DHT22;4511;50.890;8.054;2023-08-06T07:54:55;17.30;99.90
8953;DHT22;4511;50.890;8.054;2023-08-06T07:57:23;17.40;99.90
8953;DHT22;4511;50.890;8.054;2023-08-06T07:59:50;17.50;99.90
8953;DHT22;4511;50.890;8.054;2023-08-06T08:02:16;17.20;99.90
8953;DHT22;4511;50.890;8.054;2023-08-06T08:04:44;17.00;99.90
8953;DHT22;4511;50.890;8.054;2023-08-06T08:07:12;16.70;99.90
8953;DHT22;4511;50.890;8.054;2023-08-06T08:09:39;16.70;99.90
8953;DHT22;4511;50.890;8.054;2023-08-06T08:12:06;16.80;99.90
8953;DHT22;4511;50.890;8.054;2023-08-06T08:14:35;16.90;99.90
8953;DHT22;4511;50.890;8.054;2023-08-06T08:17:02;16.90;99.90
8953;DHT22;4511;50.890;8.054;2023-08-06T08:19:30;16.90;99.90
8953;DHT22;4511;50.890;8.054;2023-08-06T08:21:57;16.90;99.90
8953;DHT22;4511;50.890;8.054;2023-08-06T08:24:24;16.90;99.90
8953;DHT22;4511;50.890;8.054;2023-08-06T08:26:51;16.70;99.90
8953;DHT22;4511;50.890;8.054;2023-08-06T08:29:18;16.60;99.90
8953;DHT22;4511;50.890;8.054;2023-08-06T08:31:47;16.40;99.90
8953;DHT22;4511;50.890;8.054;2023-08-06T08:34:14;16.30;99.90
8953;DHT22;4511;50.890;8.054;2023-08-06T08:36:41;16.40;99.90
8953;DHT22;4511;50.890;8.054;2023-08-06T08:39:08;16.50;99.90
8953;DHT22;4511;50.890;8.054;2023-08-06T08:41:36;16.70;99.90
8953;DHT22;4511;50.890;8.054;2023-08-06T08:44:06;16.80;99.90
8953;DHT22;4511;50.890;8.054;2023-08-06T08:46:34;16.80;99.90
8953;DHT22;4511;50.890;8.054;2023-08-06T08:49:03;16.70;99.90
8953;DHT22;4511;50.890;8.054;2023-08-06T08:51:30;16.90;99.90
8953;DHT22;4511;50.890;8.054;2023-08-06T08:53:58;16.50;99.90
8953;DHT22;4511;50.890;8.054;2023-08-06T08:56:25;16.50;99.90
8953;DHT22;4511;50.890;8.054;2023-08-06T08:58:51;16.70;99.90
8953;DHT22;4511;50.890;8.054;2023-08-06T09:01:21;16.90;99.90
8953;DHT22;4511;50.890;8.054;2023-08-06T09:03:49;16.80;99.90
8953;DHT22;4511;50.890;8.054;2023-08-06T09:06:19;17.00;99.90
8953;DHT22;4511;50.890;8.054;2023-08-06T09:08:51;17.00;99.90
8953;DHT22;4511;50.890;8.054;2023-08-06T09:11:19;16.60;99.90
8953;DHT22;4511;50.890;8.054;2023-08-06T09:13:47;16.50;99.90
8953;DHT22;4511;50.890;8.054;2023-08-06T09:16:14;16.60;99.90
8953;DHT22;4511;50.890;8.054;2023-08-06T09:18:41;16.50;99.90
8953;DHT22;4511;50.890;8.054;2023-08-06T09:21:13;16.60;99.90
8953;DHT22;4511;50.890;8.054;2023-08-06T09:23:42;16.50;99.90
8953;DHT22;4511;50.890;8.054;2023-08-06T09:26:12;16.60;99.90
8953;DHT22;4511;50.890;8.054;2023-08-06T09:28:39;16.60;99.90
8953;DHT22;4511;50.890;8.054;2023-08-06T09:31:08;16.80;99.90
8953;DHT22;4511;50.890;8.054;2023-08-06T09:33:37;16.90;99.90
8953;DHT22;4511;50.890;8.054;2023-08-06T09:36:08;17.10;99.90
8953;DHT22;4511;50.890;8.054;2023-08-06T09:38:38;17.10;99.90
8953;DHT22;4511;50.890;8.054;2023-08-06T09:41:07;17.10;99.90
8953;DHT22;4511;50.890;8.054;2023-08-06T09:43:41;17.30;99.90
8953;DHT22;4511;50.890;8.054;2023-08-06T09:46:12;17.40;99.90
8953;DHT22;4511;50.890;8.054;2023-08-06T09:48:40;17.30;99.90
8953;DHT22;4511;50.890;8.054;2023-08-06T09:51:08;17.10;99.90
8953;DHT22;4511;50.890;8.054;2023-08-06T09:53:37;16.50;99.90
8953;DHT22;4511;50.890;8.054;2023-08-06T09:56:06;16.40;99.90
8953;DHT22;4511;50.890;8.054;2023-08-06T09:58:33;16.30;99.90
8953;DHT22;4511;50.890;8.054;2023-08-06T10:01:01;16.20;99.90
8953;DHT22;4511;50.890;8.054;2023-08-06T10:03:29;16.10;99.90
8953;DHT22;4511;50.890;8.054;2023-08-06T10:05:57;16.10;99.90
8953;DHT22;4511;50.890;8.054;2023-08-06T10:08:24;16.30;99.90
8953;DHT22;4511;50.890;8.054;2023-08-06T10:10:51;16.20;99.90
8953;DHT22;4511;50.890;8.054;2023-08-06T10:13:21;16.20;99.90
8953;DHT22;4511;50.890;8.054;2023-08-06T10:15:49;16.40;99.90
8953;DHT22;4511;50.890;8.054;2023-08-06T10:18:17;16.60;99.90
8953;DHT22;4511;50.890;8.054;2023-08-06T10:20:46;16.80;99.90
8953;DHT22;4511;50.890;8.054;2023-08-06T10:23:13;16.90;99.90
8953;DHT22;4511;50.890;8.054;2023-08-06T10:25:41;16.70;99.90
8953;DHT22;4511;50.890;8.054;2023-08-06T10:28:09;16.80;99.90
8953;DHT22;4511;50.890;8.054;2023-08-06T10:33:10;17.10;99.90
8953;DHT22;4511;50.890;8.054;2023-08-06T10:35:40;17.10;99.90
8953;DHT22;4511;50.890;8.054;2023-08-06T10:38:10;17.20;99.90
8953;DHT22;4511;50.890;8.054;2023-08-06T10:40:41;17.20;99.90
8953;DHT22;4511;50.890;8.054;2023-08-06T10:43:08;17.30;99.90
8953;DHT22;4511;50.890;8.054;2023-08-06T10:45:52;17.50;99.90
8953;DHT22;4511;50.890;8.054;2023-08-06T10:48:29;17.20;99.90
8953;DHT22;4511;50.890;8.054;2023-08-06T10:50:58;17.50;99.90
8953;DHT22;4511;50.890;8.054;2023-08-06T10:53:25;17.70;99.90
8953;DHT22;4511;50.890;8.054;2023-08-06T10:55:53;17.70;99.90
8953;DHT22;4511;50.890;8.054;2023-08-06T10:58:20;18.20;99.90
8953;DHT22;4511;50.890;8.054;2023-08-06T11:00:47;18.20;99.90
8953;DHT22;4511;50.890;8.054;2023-08-06T11:03:16;18.40;99.90
8953;DHT22;4511;50.890;8.054;2023-08-06T11:05:48;18.50;99.90
8953;DHT22;4511;50.890;8.054;2023-08-06T11:08:23;18.70;99.90
8953;DHT22;4511;50.890;8.054;2023-08-06T11:10:50;18.50;99.90
8953;DHT22;4511;50.890;8.054;2023-08-06T11:13:17;18.70;99.90
8953;DHT22;4511;50.890;8.054;2023-08-06T11:15:45;18.40;99.90
8953;DHT22;4511;50.890;8.054;2023-08-06T11:18:12;18.00;99.90
8953;DHT22;4511;50.890;8.054;2023-08-06T11:20:40;17.80;99.90
8953;DHT22;4511;50.890;8.054;2023-08-06T11:23:10;18.10;99.90
8953;DHT22;4511;50.890;8.054;2023-08-06T11:25:36;18.60;99.90
8953;DHT22;4511;50.890;8.054;2023-08-06T11:28:04;18.30;99.90
8953;DHT22;4511;50.890;8.054;2023-08-06T11:30:30;18.20;99.90
8953;DHT22;4511;50.890;8.054;2023-08-06T11:32:57;18.10;99.90
8953;DHT22;4511;50.890;8.054;2023-08-06T11:35:24;18.00;99.90
8953;DHT22;4511;50.890;8.054;2023-08-06T11:37:52;17.90;99.90
8953;DHT22;4511;50.890;8.054;2023-08-06T11:40:20;18.50;99.90
8953;DHT22;4511;50.890;8.054;2023-08-06T11:42:47;19.40;99.90
8953;DHT22;4511;50.890;8.054;2023-08-06T11:45:14;19.70;99.90
8953;DHT22;4511;50.890;8.054;2023-08-06T11:47:41;19.20;99.90
8953;DHT22;4511;50.890;8.054;2023-08-06T11:52:39;19.10;99.90
8953;DHT22;4511;50.890;8.054;2023-08-06T11:55:09;18.40;99.90
8953;DHT22;4511;50.890;8.054;2023-08-06T11:57:37;18.40;99.90
8953;DHT22;4511;50.890;8.054;2023-08-06T12:02:33;17.90;99.90
8953;DHT22;4511;50.890;8.054;2023-08-06T12:07:32;17.40;99.90
8953;DHT22;4511;50.890;8.054;2023-08-06T12:09:59;17.30;99.90
8953;DHT22;4511;50.890;8.054;2023-08-06T12:12:28;17.20;99.90
8953;DHT22;4511;50.890;8.054;2023-08-06T12:14:55;17.20;99.90
8953;DHT22;4511;50.890;8.054;2023-08-06T12:17:22;17.20;99.90
8953;DHT22;4511;50.890;8.054;2023-08-06T12:19:50;16.70;99.90
8953;DHT22;4511;50.890;8.054;2023-08-06T12:22:17;16.50;99.90
8953;DHT22;4511;50.890;8.054;2023-08-06T12:24:46;16.50;99.90
8953;DHT22;4511;50.890;8.054;2023-08-06T12:27:13;16.60;99.90
8953;DHT22;4511;50.890;8.054;2023-08-06T12:29:43;16.80;99.90
8953;DHT22;4511;50.890;8.054;2023-08-06T12:32:10;16.80;99.90
8953;DHT22;4511;50.890;8.054;2023-08-06T12:34:38;16.60;99.90
8953;DHT22;4511;50.890;8.054;2023-08-06T12:37:05;16.60;99.90
8953;DHT22;4511;50.890;8.054;2023-08-06T12:39:32;16.60;99.90
8953;DHT22;4511;50.890;8.054;2023-08-06T12:42:00;16.50;99.90
8953;DHT22;4511;50.890;8.054;2023-08-06T12:44:27;16.40;99.90
8953;DHT22;4511;50.890;8.054;2023-08-06T12:46:55;16.50;99.90
8953;DHT22;4511;50.890;8.054;2023-08-06T12:49:22;16.30;99.90
8953;DHT22;4511;50.890;8.054;2023-08-06T12:51:50;16.30;99.90
8953;DHT22;4511;50.890;8.054;2023-08-06T12:54:17;16.40;99.90
8953;DHT22;4511;50.890;8.054;2023-08-06T12:56:45;16.40;99.90
8953;DHT22;4511;50.890;8.054;2023-08-06T12:59:13;16.40;99.90
8953;DHT22;4511;50.890;8.054;2023-08-06T13:01:40;16.60;99.90
8953;DHT22;4511;50.890;8.054;2023-08-06T13:04:08;16.80;99.90
8953;DHT22;4511;50.890;8.054;2023-08-06T13:06:35;16.70;99.90
8953;DHT22;4511;50.890;8.054;2023-08-06T13:09:02;16.70;99.90
8953;DHT22;4511;50.890;8.054;2023-08-06T13:11:30;16.30;99.90
8953;DHT22;4511;50.890;8.054;2023-08-06T13:14:03;15.80;99.90
8953;DHT22;4511;50.890;8.054;2023-08-06T13:16:30;16.00;99.90
8953;DHT22;4511;50.890;8.054;2023-08-06T13:18:57;15.90;99.90
8953;DHT22;4511;50.890;8.054;2023-08-06T13:21:32;15.90;99.90
8953;DHT22;4511;50.890;8.054;2023-08-06T13:23:59;15.90;99.90
8953;DHT22;4511;50.890;8.054;2023-08-06T13:26:27;15.90;99.90
8953;DHT22;4511;50.890;8.054;2023-08-06T13:28:53;15.90;99.90
8953;DHT22;4511;50.890;8.054;2023-08-06T13:31:20;16.00;99.90
8953;DHT22;4511;50.890;8.054;2023-08-06T13:33:47;16.00;99.90
8953;DHT22;4511;50.890;8.054;2023-08-06T13:36:15;15.90;99.90
8953;DHT22;4511;50.890;8.054;2023-08-06T13:38:43;15.80;99.90
8953;DHT22;4511;50.890;8.054;2023-08-06T13:41:10;15.80;99.90
8953;DHT22;4511;50.890;8.054;2023-08-06T13:43:37;15.60;99.90
8953;DHT22;4511;50.890;8.054;2023-08-06T13:46:04;15.50;99.90
8953;DHT22;4511;50.890;8.054;2023-08-06T13:48:30;15.50;99.90
8953;DHT22;4511;50.890;8.054;2023-08-06T13:50:57;15.50;99.90
8953;DHT22;4511;50.890;8.054;2023-08-06T13:53:24;15.40;99.90
8953;DHT22;4511;50.890;8.054;2023-08-06T13:55:56;15.40;99.90
8953;DHT22;4511;50.890;8.054;2023-08-06T13:58:24;15.40;99.90
8953;DHT22;4511;50.890;8.054;2023-08-06T14:00:51;15.30;99.90
8953;DHT22;4511;50.890;8.054;2023-08-06T14:03:18;15.30;99.90
8953;DHT22;4511;50.890;8.054;2023-08-06T14:05:45;15.10;99.90
8953;DHT22;4511;50.890;8.054;2023-08-06T14:08:12;15.00;99.90
8953;DHT22;4511;50.890;8.054;2023-08-06T14:10:40;14.80;99.90
8953;DHT22;4511;50.890;8.054;2023-08-06T14:13:08;14.80;99.90
8953;DHT22;4511;50.890;8.054;2023-08-06T14:15:35;14.90;99.90
8953;DHT22;4511;50.890;8.054;2023-08-06T14:18:02;14.90;99.90
8953;DHT22;4511;50.890;8.054;2023-08-06T14:20:28;15.10;99.90
8953;DHT22;4511;50.890;8.054;2023-08-06T14:22:56;15.00;99.90
8953;DHT22;4511;50.890;8.054;2023-08-06T14:25:23;15.10;99.90
8953;DHT22;4511;50.890;8.054;2023-08-06T14:27:50;15.00;99.90
8953;DHT22;4511;50.890;8.054;2023-08-06T14:30:18;15.10;99.90
8953;DHT22;4511;50.890;8.054;2023-08-06T14:32:45;14.90;99.90
8953;DHT22;4511;50.890;8.054;2023-08-06T14:35:12;14.90;99.90
8953;DHT22;4511;50.890;8.054;2023-08-06T14:37:39;14.90;99.90
8953;DHT22;4511;50.890;8.054;2023-08-06T14:40:07;14.90;99.90
8953;DHT22;4511;50.890;8.054;2023-08-06T14:42:34;15.10;99.90
8953;DHT22;4511;50.890;8.054;2023-08-06T14:45:02;15.20;99.90
8953;DHT22;4511;50.890;8.054;2023-08-06T14:47:30;15.10;99.90
8953;DHT22;4511;50.890;8.054;2023-08-06T14:49:57;15.10;99.90
8953;DHT22;4511;50.890;8.054;2023-08-06T14:52:24;14.90;99.90
8953;DHT22;4511;50.890;8.054;2023-08-06T14:54:51;15.00;99.90
8953;DHT22;4511;50.890;8.054;2023-08-06T14:57:20;15.00;99.90
8953;DHT22;4511;50.890;8.054;2023-08-06T14:59:53;15.20;99.90
8953;DHT22;4511;50.890;8.054;2023-08-06T15:02:19;15.30;99.90
8953;DHT22;4511;50.890;8.054;2023-08-06T15:04:48;15.20;99.90
8953;DHT22;4511;50.890;8.054;2023-08-06T15:07:15;15.00;99.90
8953;DHT22;4511;50.890;8.054;2023-08-06T15:09:42;15.00;99.90
8953;DHT22;4511;50.890;8.054;2023-08-06T15:12:09;15.20;99.90
8953;DHT22;4511;50.890;8.054;2023-08-06T15:14:36;15.20;99.90
8953;DHT22;4511;50.890;8.054;2023-08-06T15:17:03;15.30;99.90
8953;DHT22;4511;50.890;8.054;2023-08-06T15:19:30;15.40;99.90
8953;DHT22;4511;50.890;8.054;2023-08-06T15:21:58;15.30;99.90
8953;DHT22;4511;50.890;8.054;2023-08-06T15:24:25;15.50;99.90
8953;DHT22;4511;50.890;8.054;2023-08-06T15:26:52;15.40;99.90
8953;DHT22;4511;50.890;8.054;2023-08-06T15:29:18;15.60;99.90
8953;DHT22;4511;50.890;8.054;2023-08-06T15:31:46;15.60;99.90
8953;DHT22;4511;50.890;8.054;2023-08-06T15:34:13;15.70;99.90
8953;DHT22;4511;50.890;8.054;2023-08-06T15:36:40;15.70;99.90
8953;DHT22;4511;50.890;8.054;2023-08-06T15:39:08;15.60;99.90
8953;DHT22;4511;50.890;8.054;2023-08-06T15:41:35;15.50;99.90
8953;DHT22;4511;50.890;8.054;2023-08-06T15:44:01;15.60;99.90
8953;DHT22;4511;50.890;8.054;2023-08-06T15:46:28;15.60;99.90
8953;DHT22;4511;50.890;8.054;2023-08-06T15:48:55;15.70;99.90
8953;DHT22;4511;50.890;8.054;2023-08-06T15:51:22;15.60;99.90
8953;DHT22;4511;50.890;8.054;2023-08-06T15:53:48;15.60;99.90
8953;DHT22;4511;50.890;8.054;2023-08-06T15:56:17;15.60;99.90
8953;DHT22;4511;50.890;8.054;2023-08-06T15:58:43;15.60;99.90
8953;DHT22;4511;50.890;8.054;2023-08-06T16:01:10;15.60;99.90
8953;DHT22;4511;50.890;8.054;2023-08-06T16:03:37;15.60;99.90
8953;DHT22;4511;50.890;8.054;2023-08-06T16:06:07;15.60;99.90
8953;DHT22;4511;50.890;8.054;2023-08-06T16:08:34;15.60;99.90
8953;DHT22;4511;50.890;8.054;2023-08-06T16:11:00;15.60;99.90
8953;DHT22;4511;50.890;8.054;2023-08-06T16:13:28;15.60;99.90